Time;durP1;ratioP1;P1;durP2;ratioP2;P2;SDS_P1;SDS_P2;PMS_P1;PMS_P2;Temp;Humidity;BMP_temperature;BMP_pressure;BME280_temperature;BME280_humidity;BME280_pressure;Samples;Min_cycle;Max_cycle;Signal;HPM_P1;HPM_P2
2022/12/24 00:01:37;;;;;;;19.93;2.90;;;10.50;99.90;;;;;;5027494;28;20485;-70
2022/12/24 00:04:05;;;;;;;15.13;3.00;;;10.40;99.90;;;;;;5026617;28;20481;-70
2022/12/24 00:06:31;;;;;;;15.07;3.07;;;10.50;99.90;;;;;;5027431;28;20488;-70
2022/12/24 00:08:58;;;;;;;14.80;3.27;;;10.40;99.90;;;;;;5027537;28;20446;-70
2022/12/24 00:11:24;;;;;;;14.17;2.77;;;10.50;99.90;;;;;;5026886;28;20465;-69
2022/12/24 00:13:52;;;;;;;15.47;2.80;;;10.50;99.90;;;;;;5027544;28;20450;-70
2022/12/24 00:16:19;;;;;;;15.67;3.60;;;10.60;99.90;;;;;;5027168;28;20473;-70
2022/12/24 00:18:46;;;;;;;9.53;2.23;;;10.60;99.90;;;;;;5027348;28;20450;-71
2022/12/24 00:21:13;;;;;;;13.17;2.30;;;10.60;99.90;;;;;;5027190;28;20482;-71
2022/12/24 00:23:40;;;;;;;7.37;2.50;;;10.60;99.90;;;;;;5027113;28;20442;-70
2022/12/24 00:26:07;;;;;;;14.43;2.70;;;10.60;99.90;;;;;;5026756;28;20543;-70
2022/12/24 00:28:33;;;;;;;12.70;4.10;;;10.50;99.90;;;;;;5027201;28;20458;-71
2022/12/24 00:31:07;;;;;;;6.90;2.27;;;10.50;99.90;;;;;;5027449;28;20523;-70
2022/12/24 00:33:34;;;;;;;14.37;2.50;;;10.50;99.90;;;;;;5027291;28;20446;-71
2022/12/24 00:36:01;;;;;;;10.60;2.63;;;10.50;99.90;;;;;;5026648;28;20997;-70
2022/12/24 00:38:27;;;;;;;8.50;2.60;;;10.50;99.90;;;;;;5026783;28;20464;-70
2022/12/24 00:40:58;;;;;;;10.70;2.90;;;10.50;99.90;;;;;;5027275;28;20445;-70
2022/12/24 00:43:25;;;;;;;13.37;3.40;;;10.40;99.90;;;;;;5027094;28;20528;-71
2022/12/24 00:45:52;;;;;;;8.30;2.43;;;10.40;99.90;;;;;;5027092;28;20500;-70
2022/12/24 00:48:21;;;;;;;13.80;3.00;;;10.40;99.90;;;;;;5026822;28;20442;-70
2022/12/24 00:50:48;;;;;;;14.00;3.00;;;10.40;99.90;;;;;;5027161;28;20445;-69
2022/12/24 00:53:15;;;;;;;16.60;3.13;;;10.40;99.90;;;;;;5026942;28;20442;-70
2022/12/24 00:55:41;;;;;;;10.43;2.47;;;10.40;99.90;;;;;;5026981;28;20531;-70
2022/12/24 00:58:08;;;;;;;11.70;2.73;;;10.40;99.90;;;;;;5026715;28;20454;-70
2022/12/24 01:00:35;;;;;;;14.90;3.20;;;10.40;99.90;;;;;;5027075;28;20453;-71
2022/12/24 01:03:01;;;;;;;12.47;2.90;;;10.40;99.90;;;;;;5026409;28;20482;-70
2022/12/24 01:05:28;;;;;;;8.30;2.80;;;10.40;99.90;;;;;;5026788;28;20472;-70
2022/12/24 01:07:55;;;;;;;13.13;3.23;;;10.40;99.90;;;;;;5027064;28;20798;-70
2022/12/24 01:10:22;;;;;;;11.30;2.83;;;10.40;99.90;;;;;;5026601;28;20850;-70
2022/12/24 01:12:48;;;;;;;20.87;3.40;;;10.30;99.90;;;;;;5026852;28;20453;-70
2022/12/24 01:15:16;;;;;;;8.67;2.83;;;10.30;99.90;;;;;;5029132;28;20492;-70
2022/12/24 01:17:43;;;;;;;9.53;2.87;;;10.30;99.90;;;;;;5030058;28;20950;-70
2022/12/24 01:20:14;;;;;;;12.80;3.00;;;10.20;99.90;;;;;;5030334;28;20731;-70
2022/12/24 01:22:42;;;;;;;8.13;3.47;;;10.20;99.90;;;;;;5030187;28;20481;-70
2022/12/24 01:25:09;;;;;;;11.60;2.97;;;10.20;99.90;;;;;;5029973;28;20473;-70
2022/12/24 01:27:36;;;;;;;20.10;3.70;;;10.20;99.90;;;;;;5030354;28;20461;-70
2022/12/24 01:30:04;;;;;;;13.43;3.03;;;10.20;99.90;;;;;;5030591;28;20788;-70
2022/12/24 01:32:30;;;;;;;13.90;3.30;;;10.20;99.90;;;;;;5030058;28;20504;-70
2022/12/24 01:34:58;;;;;;;24.00;4.03;;;10.20;99.90;;;;;;5029730;28;20532;-70
2022/12/24 01:37:25;;;;;;;13.73;3.43;;;10.20;99.90;;;;;;5029803;28;20461;-71
2022/12/24 01:43:22;;;;;;;15.80;3.30;;;10.20;99.90;;;;;;5030106;28;20461;-71
2022/12/24 01:45:43;;;;;;;11.00;3.20;;;10.10;99.90;;;;;;5029569;28;20547;-70
2022/12/24 01:48:17;;;;;;;15.80;3.67;;;10.00;99.90;;;;;;5029653;28;20497;-70
2022/12/24 01:50:44;;;;;;;13.80;3.33;;;10.00;99.90;;;;;;5029894;28;20458;-70
2022/12/24 01:53:13;;;;;;;10.17;3.40;;;9.90;99.90;;;;;;5029690;28;20450;-70
2022/12/24 01:55:42;;;;;;;18.70;3.30;;;9.90;99.90;;;;;;5029740;28;20480;-70
2022/12/24 01:58:10;;;;;;;17.33;3.10;;;9.90;99.90;;;;;;5029597;28;20512;-70
2022/12/24 02:00:37;;;;;;;17.40;3.23;;;9.90;99.90;;;;;;5029689;28;20515;-71
2022/12/24 02:03:04;;;;;;;17.43;3.47;;;9.80;99.90;;;;;;5029906;28;20485;-70
2022/12/24 02:05:36;;;;;;;14.80;3.30;;;9.80;99.90;;;;;;5029446;28;21458;-70
2022/12/24 02:08:05;;;;;;;15.17;3.50;;;9.80;99.90;;;;;;5029755;28;20536;-70
2022/12/24 02:10:31;;;;;;;11.60;3.10;;;9.80;99.90;;;;;;5029194;28;20503;-70
2022/12/24 02:13:01;;;;;;;16.47;3.00;;;9.70;99.90;;;;;;5029461;28;20446;-71
2022/12/24 02:15:34;;;;;;;13.90;3.23;;;9.60;99.90;;;;;;5028937;28;20458;-71
2022/12/24 02:18:09;;;;;;;9.17;3.40;;;9.60;99.90;;;;;;5029056;28;20991;-70
2022/12/24 02:20:57;;;;;;;12.40;2.67;;;9.50;99.90;;;;;;5029611;28;20548;-70
2022/12/24 02:23:46;;;;;;;13.07;2.60;;;9.40;99.90;;;;;;5029096;28;20489;-70
2022/12/24 02:26:31;;;;;;;17.57;3.50;;;9.40;99.90;;;;;;5028179;28;20551;-70
2022/12/24 02:29:23;;;;;;;17.37;3.40;;;9.40;99.90;;;;;;5029251;28;21183;-70
2022/12/24 02:31:57;;;;;;;22.70;3.03;;;9.30;99.90;;;;;;5029165;28;20507;-70
2022/12/24 02:34:28;;;;;;;19.30;3.87;;;9.30;99.90;;;;;;5028416;28;20492;-70
2022/12/24 02:36:59;;;;;;;11.83;2.90;;;9.30;99.90;;;;;;5029170;28;20455;-70
2022/12/24 02:39:33;;;;;;;11.67;3.20;;;9.30;99.90;;;;;;5028620;28;20454;-70
2022/12/24 02:42:08;;;;;;;20.77;3.20;;;9.30;99.90;;;;;;5028707;28;20489;-70
2022/12/24 02:44:40;;;;;;;16.30;3.20;;;9.40;99.90;;;;;;5028925;28;20968;-70
2022/12/24 02:47:10;;;;;;;11.87;3.13;;;9.40;99.90;;;;;;5028838;28;20454;-70
2022/12/24 02:49:37;;;;;;;15.67;2.77;;;9.40;99.90;;;;;;5029229;28;20457;-70
2022/12/24 02:52:04;;;;;;;22.07;4.33;;;9.40;99.90;;;;;;5028803;28;20454;-70
2022/12/24 02:54:32;;;;;;;17.00;5.37;;;9.40;99.90;;;;;;5028518;28;20449;-70
2022/12/24 02:57:08;;;;;;;14.87;2.90;;;9.40;99.90;;;;;;5028503;28;20454;-70
2022/12/24 02:59:56;;;;;;;17.40;3.00;;;9.40;99.90;;;;;;5028625;28;20442;-70
2022/12/24 03:02:38;;;;;;;13.03;3.10;;;9.40;99.90;;;;;;5028326;28;21055;-70
2022/12/24 03:05:18;;;;;;;16.50;2.77;;;9.40;99.90;;;;;;5028403;28;20477;-70
2022/12/24 03:07:52;;;;;;;13.10;2.73;;;9.40;99.90;;;;;;5028438;28;20452;-70
2022/12/24 03:10:24;;;;;;;16.00;2.90;;;9.40;99.90;;;;;;5028081;28;20449;-70
2022/12/24 03:12:55;;;;;;;14.40;3.30;;;9.40;99.90;;;;;;5028190;28;20519;-70
2022/12/24 03:15:25;;;;;;;26.93;4.00;;;9.50;99.90;;;;;;5027983;28;20516;-70
2022/12/24 03:17:57;;;;;;;17.33;3.13;;;9.60;99.90;;;;;;5028276;28;20469;-70
2022/12/24 03:20:30;;;;;;;10.97;2.93;;;9.50;99.90;;;;;;5028517;28;20504;-70
2022/12/24 03:22:57;;;;;;;17.83;4.10;;;9.50;99.90;;;;;;5028277;28;20540;-70
2022/12/24 03:25:26;;;;;;;16.47;3.87;;;9.40;99.90;;;;;;5028293;28;20477;-70
2022/12/24 03:27:53;;;;;;;12.20;3.10;;;9.50;99.90;;;;;;5027670;28;20445;-70
2022/12/24 03:30:20;;;;;;;20.30;3.43;;;9.50;99.90;;;;;;5028106;28;20462;-70
2022/12/24 03:32:47;;;;;;;14.10;3.20;;;9.40;99.90;;;;;;5028015;28;20476;-70
2022/12/24 03:35:15;;;;;;;12.20;3.40;;;9.40;99.90;;;;;;5027480;28;20476;-70
2022/12/24 03:37:42;;;;;;;19.13;3.70;;;9.40;99.90;;;;;;5027477;28;20515;-70
2022/12/24 03:40:09;;;;;;;14.83;3.20;;;9.40;99.90;;;;;;5027770;28;20450;-70
2022/12/24 03:42:36;;;;;;;15.80;3.23;;;9.50;99.90;;;;;;5027654;28;20489;-70
2022/12/24 03:45:03;;;;;;;17.83;3.67;;;9.40;99.90;;;;;;5027571;28;20470;-70
2022/12/24 03:47:31;;;;;;;15.80;3.60;;;9.40;99.90;;;;;;5027951;28;20438;-69
2022/12/24 03:49:57;;;;;;;12.47;3.47;;;9.40;99.90;;;;;;5028390;28;20433;-70
2022/12/24 03:52:25;;;;;;;23.77;3.67;;;9.50;99.90;;;;;;5027791;28;20472;-69
2022/12/24 03:54:52;;;;;;;24.23;4.00;;;9.50;99.90;;;;;;5027633;28;20492;-70
2022/12/24 03:57:19;;;;;;;15.10;3.87;;;9.50;99.90;;;;;;5027646;28;20529;-70
2022/12/24 03:59:45;;;;;;;13.93;3.30;;;9.50;99.90;;;;;;5027917;28;20446;-70
2022/12/24 04:02:12;;;;;;;15.40;3.57;;;9.50;99.90;;;;;;5027658;28;20465;-71
2022/12/24 04:04:39;;;;;;;20.03;3.47;;;9.50;99.90;;;;;;5026460;28;20453;-71
2022/12/24 04:07:05;;;;;;;11.97;3.63;;;9.50;99.90;;;;;;5027958;28;20457;-70
2022/12/24 04:09:34;;;;;;;19.73;3.20;;;9.50;99.90;;;;;;5027838;28;20450;-70
2022/12/24 04:12:00;;;;;;;11.83;2.70;;;9.60;99.90;;;;;;5027691;28;20469;-70
2022/12/24 04:14:27;;;;;;;11.67;3.43;;;9.60;99.90;;;;;;5027395;28;20496;-70
2022/12/24 04:16:54;;;;;;;14.83;3.83;;;9.70;99.90;;;;;;5027659;28;20476;-71
2022/12/24 04:19:20;;;;;;;15.20;4.73;;;9.70;99.90;;;;;;5027406;28;20512;-70
2022/12/24 04:21:47;;;;;;;22.50;3.80;;;9.70;99.90;;;;;;5027337;28;20504;-70
2022/12/24 04:24:13;;;;;;;22.67;4.00;;;9.60;99.90;;;;;;5027449;28;20551;-70
2022/12/24 04:26:41;;;;;;;22.27;3.47;;;9.60;99.90;;;;;;5027638;28;20461;-71
2022/12/24 04:29:08;;;;;;;17.47;3.60;;;9.50;99.90;;;;;;5027302;28;20527;-70
2022/12/24 04:31:35;;;;;;;14.03;3.60;;;9.50;99.90;;;;;;5027527;28;20511;-70
2022/12/24 04:34:01;;;;;;;15.60;4.13;;;9.50;99.90;;;;;;5026947;28;20811;-70
2022/12/24 04:36:28;;;;;;;13.07;3.90;;;9.50;99.90;;;;;;5027488;28;20477;-70
2022/12/24 04:38:55;;;;;;;19.20;3.20;;;9.50;99.90;;;;;;5027327;28;20457;-71
2022/12/24 04:41:23;;;;;;;12.13;3.57;;;9.60;99.90;;;;;;5027190;28;20500;-70
2022/12/24 04:43:51;;;;;;;14.77;3.70;;;9.60;99.90;;;;;;5027279;28;20481;-70
2022/12/24 04:46:19;;;;;;;22.73;3.23;;;9.70;99.90;;;;;;5027128;28;20469;-71
2022/12/24 04:48:48;;;;;;;11.23;3.30;;;9.80;99.90;;;;;;5028183;28;20575;-71
2022/12/24 04:51:16;;;;;;;17.03;3.33;;;9.80;99.90;;;;;;5031295;28;20473;-70
2022/12/24 04:53:43;;;;;;;18.67;4.00;;;9.80;99.90;;;;;;5031356;28;20452;-71
2022/12/24 04:56:12;;;;;;;17.10;2.93;;;9.80;99.90;;;;;;5031253;28;20483;-71
2022/12/24 04:58:38;;;;;;;14.30;3.87;;;9.80;99.90;;;;;;5030597;28;20446;-70
2022/12/24 05:01:08;;;;;;;15.80;3.17;;;9.80;99.90;;;;;;5031024;28;20445;-70
2022/12/24 05:03:35;;;;;;;14.53;3.90;;;9.80;99.90;;;;;;5030723;28;20477;-71
2022/12/24 05:06:02;;;;;;;12.83;3.00;;;9.80;99.90;;;;;;5031188;28;20573;-70
2022/12/24 05:08:29;;;;;;;11.33;2.63;;;9.80;99.90;;;;;;5030907;28;20449;-70
2022/12/24 05:10:56;;;;;;;18.43;3.30;;;9.80;99.90;;;;;;5030720;28;20550;-71
2022/12/24 05:13:23;;;;;;;19.43;3.00;;;9.80;99.90;;;;;;5031035;28;20508;-70
2022/12/24 05:15:50;;;;;;;12.20;3.37;;;9.80;99.90;;;;;;5031006;28;20531;-70
2022/12/24 05:18:18;;;;;;;18.23;4.00;;;9.70;99.90;;;;;;5030795;28;20532;-71
2022/12/24 05:20:45;;;;;;;10.03;2.80;;;9.70;99.90;;;;;;5030785;28;20503;-70
2022/12/24 05:28:43;;;;;;;12.20;3.70;;;9.70;99.90;;;;;;5030219;28;20445;-71
2022/12/24 05:31:10;;;;;;;11.23;3.00;;;9.80;99.90;;;;;;5030633;28;20442;-70
2022/12/24 05:33:38;;;;;;;13.40;2.80;;;9.80;99.90;;;;;;5030417;28;20495;-71
2022/12/24 05:36:06;;;;;;;8.27;2.90;;;9.80;99.90;;;;;;5029796;28;20470;-70
2022/12/24 05:38:32;;;;;;;14.87;4.40;;;9.80;99.90;;;;;;5030302;28;20532;-70
2022/12/24 05:40:59;;;;;;;6.60;3.00;;;9.80;99.90;;;;;;5030393;28;20468;-70
2022/12/24 05:43:26;;;;;;;12.70;3.43;;;9.80;99.90;;;;;;5030039;28;20505;-71
2022/12/24 05:45:58;;;;;;;18.00;3.30;;;9.80;99.90;;;;;;5030422;28;20469;-70
2022/12/24 05:48:24;;;;;;;15.37;3.30;;;9.80;99.90;;;;;;5029706;28;20961;-70
2022/12/24 05:50:52;;;;;;;13.90;3.00;;;9.80;99.90;;;;;;5030387;28;20458;-70
2022/12/24 05:53:19;;;;;;;15.30;4.70;;;9.80;99.90;;;;;;5030220;28;20453;-70
2022/12/24 05:55:46;;;;;;;19.20;3.10;;;9.80;99.90;;;;;;5029857;28;20461;-70
2022/12/24 05:58:13;;;;;;;10.33;3.00;;;9.80;99.90;;;;;;5030531;28;20573;-70
2022/12/24 06:00:39;;;;;;;17.57;3.47;;;9.80;99.90;;;;;;5029738;28;20457;-71
2022/12/24 06:03:06;;;;;;;18.63;4.73;;;9.80;99.90;;;;;;5030092;28;20477;-70
2022/12/24 06:05:33;;;;;;;11.23;3.50;;;9.80;99.90;;;;;;5029982;28;20466;-70
2022/12/24 06:08:01;;;;;;;13.37;3.43;;;9.70;99.90;;;;;;5030083;28;20461;-70
2022/12/24 06:10:27;;;;;;;11.07;3.47;;;9.70;99.90;;;;;;5029585;28;20446;-70
2022/12/24 06:12:55;;;;;;;14.33;3.93;;;9.70;99.90;;;;;;5029672;28;20442;-70
2022/12/24 06:15:22;;;;;;;13.93;3.60;;;9.60;99.90;;;;;;5029366;28;21203;-70
2022/12/24 06:17:49;;;;;;;16.17;3.77;;;9.60;99.90;;;;;;5029279;28;20449;-70
2022/12/24 06:20:15;;;;;;;25.17;4.03;;;9.60;99.90;;;;;;5029832;28;20508;-71
2022/12/24 06:22:42;;;;;;;20.57;3.60;;;9.60;99.90;;;;;;5029405;28;20454;-71
2022/12/24 06:25:11;;;;;;;17.83;3.63;;;9.70;99.90;;;;;;5029519;28;20462;-70
2022/12/24 06:27:38;;;;;;;18.27;3.70;;;9.60;99.90;;;;;;5029298;28;21414;-70
2022/12/24 06:30:06;;;;;;;28.83;6.70;;;9.60;99.90;;;;;;5026979;28;20507;-70
2022/12/24 06:32:33;;;;;;;14.73;4.43;;;9.60;99.90;;;;;;5026195;28;20997;-70
2022/12/24 06:34:59;;;;;;;19.60;3.47;;;9.60;99.90;;;;;;5026915;28;20470;-69
2022/12/24 06:37:26;;;;;;;17.87;4.03;;;9.60;99.90;;;;;;5025441;28;20446;-69
2022/12/24 06:39:53;;;;;;;12.30;3.10;;;9.60;99.90;;;;;;5026764;28;20452;-69
2022/12/24 06:42:23;;;;;;;20.37;4.07;;;9.60;99.90;;;;;;5025813;28;20836;-70
2022/12/24 06:44:49;;;;;;;17.17;3.57;;;9.60;99.90;;;;;;5025916;28;20485;-71
2022/12/24 06:47:16;;;;;;;11.23;3.33;;;9.60;99.90;;;;;;5025516;28;20462;-70
2022/12/24 06:49:43;;;;;;;12.03;3.67;;;9.50;99.90;;;;;;5026608;28;20450;-70
2022/12/24 06:52:09;;;;;;;17.97;3.63;;;9.40;99.90;;;;;;5025844;28;20560;-72
2022/12/24 06:54:36;;;;;;;9.87;3.37;;;9.40;99.90;;;;;;5025177;28;21178;-71
2022/12/24 06:57:03;;;;;;;12.80;3.13;;;9.30;99.90;;;;;;5025315;28;20544;-71
2022/12/24 06:59:31;;;;;;;18.97;3.30;;;9.30;99.90;;;;;;5025635;28;20454;-72
2022/12/24 07:01:58;;;;;;;13.57;3.50;;;9.30;99.90;;;;;;5026008;28;20462;-72
2022/12/24 07:04:24;;;;;;;8.97;3.00;;;9.30;99.90;;;;;;5025177;28;20499;-72
2022/12/24 07:06:51;;;;;;;13.50;3.30;;;9.20;99.90;;;;;;5025515;28;20461;-72
2022/12/24 07:09:18;;;;;;;16.83;3.80;;;9.20;99.90;;;;;;5024482;28;20949;-72
2022/12/24 07:11:44;;;;;;;17.20;3.83;;;9.20;99.90;;;;;;5024632;28;20458;-72
2022/12/24 07:14:11;;;;;;;14.93;3.30;;;9.20;99.90;;;;;;5025677;28;20458;-73
2022/12/24 07:16:39;;;;;;;14.90;4.60;;;9.30;99.90;;;;;;5025878;28;20555;-73
2022/12/24 07:19:06;;;;;;;19.30;5.27;;;9.30;99.90;;;;;;5024673;28;20462;-75
2022/12/24 07:21:32;;;;;;;14.10;4.00;;;9.30;99.90;;;;;;5024151;28;20458;-73
2022/12/24 07:23:59;;;;;;;13.53;3.70;;;9.30;99.90;;;;;;5023919;28;20488;-73
2022/12/24 07:26:26;;;;;;;10.73;4.33;;;9.30;99.90;;;;;;5024670;28;20484;-74
2022/12/24 07:28:52;;;;;;;11.87;4.00;;;9.30;99.90;;;;;;5025098;28;21052;-74
2022/12/24 07:31:19;;;;;;;20.67;6.10;;;9.30;99.90;;;;;;5023665;28;20528;-75
2022/12/24 07:33:49;;;;;;;18.40;8.20;;;9.30;99.90;;;;;;5022913;28;20512;-75
2022/12/24 07:36:19;;;;;;;14.87;5.10;;;9.40;99.90;;;;;;5024748;28;20478;-73
2022/12/24 07:38:46;;;;;;;27.27;7.60;;;9.40;99.90;;;;;;5024302;28;20461;-74
2022/12/24 07:41:13;;;;;;;19.67;6.03;;;9.40;99.90;;;;;;5024856;28;20520;-74
2022/12/24 07:43:40;;;;;;;8.27;3.53;;;9.40;99.90;;;;;;5022339;28;20498;-73
2022/12/24 07:46:07;;;;;;;14.03;2.80;;;9.40;99.90;;;;;;5024112;28;20490;-73
2022/12/24 07:48:34;;;;;;;9.67;2.50;;;9.40;99.90;;;;;;5023433;28;20466;-73
2022/12/24 07:51:02;;;;;;;8.23;2.90;;;9.40;99.90;;;;;;5024557;28;20454;-73
2022/12/24 07:53:29;;;;;;;19.83;4.20;;;9.40;99.90;;;;;;5023441;28;20516;-72
2022/12/24 07:55:56;;;;;;;10.73;3.43;;;9.40;99.90;;;;;;5023435;28;20565;-73
2022/12/24 07:58:23;;;;;;;14.40;3.80;;;9.40;99.90;;;;;;5022613;28;20909;-74
2022/12/24 08:00:55;;;;;;;17.73;4.20;;;9.40;99.90;;;;;;5022793;28;20476;-73
2022/12/24 08:03:21;;;;;;;15.47;3.53;;;9.40;99.90;;;;;;5023398;28;20462;-73
2022/12/24 08:05:48;;;;;;;14.87;3.67;;;9.40;99.90;;;;;;5023856;28;20473;-72
2022/12/24 08:08:16;;;;;;;13.57;3.47;;;9.40;99.90;;;;;;5023321;28;20457;-73
2022/12/24 08:10:45;;;;;;;11.80;3.60;;;9.40;99.90;;;;;;5022351;28;20454;-72
2022/12/24 08:13:12;;;;;;;13.10;4.00;;;9.30;99.90;;;;;;5023209;28;20454;-73
2022/12/24 08:15:38;;;;;;;9.93;3.30;;;9.30;99.90;;;;;;5023165;28;20481;-71
2022/12/24 08:18:05;;;;;;;12.43;3.33;;;9.30;99.90;;;;;;5023819;28;20458;-72
2022/12/24 08:20:32;;;;;;;13.60;4.00;;;9.30;99.90;;;;;;5023454;28;20473;-72
2022/12/24 08:22:59;;;;;;;21.57;4.53;;;9.20;99.90;;;;;;5023078;28;21178;-72
2022/12/24 08:25:27;;;;;;;9.60;3.70;;;9.20;99.90;;;;;;5026429;28;21206;-72
2022/12/24 08:27:54;;;;;;;14.48;3.70;;;9.20;99.90;;;;;;5026556;28;20449;-70
2022/12/24 08:30:21;;;;;;;13.17;3.87;;;9.20;99.90;;;;;;5028006;28;20250;-70
2022/12/24 08:32:48;;;;;;;13.30;3.47;;;9.30;99.90;;;;;;5028020;28;20465;-72
2022/12/24 08:35:15;;;;;;;10.73;3.70;;;9.30;99.90;;;;;;5028126;28;20564;-72
2022/12/24 08:37:42;;;;;;;16.30;4.00;;;9.30;99.90;;;;;;5027742;28;20457;-72
2022/12/24 08:40:10;;;;;;;10.30;3.27;;;9.40;99.90;;;;;;5028423;28;20449;-72
2022/12/24 08:42:38;;;;;;;18.33;4.83;;;9.40;99.90;;;;;;5027004;28;20457;-72
2022/12/24 08:45:07;;;;;;;12.13;3.53;;;9.50;99.90;;;;;;5025903;28;20493;-72
2022/12/24 08:47:33;;;;;;;16.83;4.40;;;9.60;99.90;;;;;;5026776;28;20467;-73
2022/12/24 08:50:00;;;;;;;17.60;4.80;;;9.70;99.90;;;;;;5028325;28;20468;-73
2022/12/24 08:52:27;;;;;;;24.10;5.43;;;9.80;99.90;;;;;;5027317;28;20457;-73
2022/12/24 08:54:54;;;;;;;16.33;4.37;;;9.80;99.90;;;;;;5027052;28;20488;-72
2022/12/24 08:57:21;;;;;;;22.00;5.13;;;9.80;99.90;;;;;;5028399;28;20953;-72
2022/12/24 08:59:49;;;;;;;19.57;4.53;;;9.80;99.90;;;;;;5028859;28;20449;-72
2022/12/24 09:02:16;;;;;;;22.87;4.50;;;9.90;99.90;;;;;;5026826;28;20457;-71
2022/12/24 09:04:43;;;;;;;21.90;4.93;;;10.00;99.90;;;;;;5027128;28;20574;-72
2022/12/24 09:07:10;;;;;;;13.50;4.03;;;10.20;99.90;;;;;;5027749;28;20539;-73
2022/12/24 09:09:37;;;;;;;25.90;4.30;;;10.40;99.90;;;;;;5027321;28;20461;-71
2022/12/24 09:12:05;;;;;;;22.03;4.40;;;10.70;99.90;;;;;;5027088;28;20890;-73
2022/12/24 09:14:32;;;;;;;22.43;5.20;;;10.90;99.90;;;;;;5024015;28;20445;-73
2022/12/24 09:17:00;;;;;;;20.73;6.70;;;11.20;99.90;;;;;;5025215;28;20561;-73
2022/12/24 09:19:27;;;;;;;29.20;4.73;;;11.30;99.90;;;;;;5025231;28;21201;-73
2022/12/24 09:21:54;;;;;;;24.63;4.60;;;11.40;99.90;;;;;;5026559;28;21001;-73
2022/12/24 09:24:21;;;;;;;21.20;3.93;;;11.40;99.90;;;;;;5026913;28;20477;-73
2022/12/24 09:26:49;;;;;;;22.70;5.10;;;11.40;99.90;;;;;;5027347;28;20950;-74
2022/12/24 09:29:16;;;;;;;14.63;3.90;;;11.60;99.90;;;;;;5026572;28;20899;-73
2022/12/24 09:31:43;;;;;;;22.70;3.93;;;11.60;99.90;;;;;;5026366;28;20458;-74
2022/12/24 09:34:11;;;;;;;20.13;4.20;;;11.70;99.90;;;;;;5027191;28;20457;-73
2022/12/24 09:36:38;;;;;;;21.00;4.30;;;11.90;99.90;;;;;;5026576;28;20568;-74
2022/12/24 09:39:05;;;;;;;14.20;4.00;;;12.10;99.90;;;;;;5025386;28;20543;-73
2022/12/24 09:41:47;;;;;;;18.77;4.27;;;12.30;99.90;;;;;;5025155;28;20461;-73
2022/12/24 09:44:26;;;;;;;13.23;4.10;;;12.40;99.90;;;;;;5025366;28;21190;-73
2022/12/24 09:46:54;;;;;;;14.23;4.10;;;12.30;99.90;;;;;;5026703;28;20461;-73
2022/12/24 09:49:26;;;;;;;11.90;3.07;;;12.30;99.90;;;;;;5019847;28;20461;-73
2022/12/24 09:51:59;;;;;;;16.90;3.73;;;12.30;99.90;;;;;;5022037;28;20457;-73
2022/12/24 09:54:29;;;;;;;9.03;3.20;;;12.40;99.90;;;;;;5019464;28;20462;-73
2022/12/24 09:57:01;;;;;;;14.63;3.30;;;12.50;99.90;;;;;;5026263;28;20457;-73
2022/12/24 09:59:41;;;;;;;12.47;3.03;;;12.90;99.90;;;;;;5021700;28;20503;-73
2022/12/24 10:02:13;;;;;;;8.23;2.70;;;13.00;99.90;;;;;;5023806;28;20547;-73
2022/12/24 10:04:42;;;;;;;14.80;3.00;;;12.90;99.90;;;;;;5024914;28;20501;-73
2022/12/24 10:07:24;;;;;;;11.27;3.60;;;12.80;99.90;;;;;;5026525;28;20449;-73
2022/12/24 10:10:01;;;;;;;9.23;2.87;;;12.60;99.90;;;;;;5026377;28;20614;-73
2022/12/24 10:12:37;;;;;;;8.60;3.17;;;12.70;99.90;;;;;;5026086;28;20461;-73
2022/12/24 10:15:15;;;;;;;17.47;3.80;;;12.80;99.90;;;;;;5024804;28;20987;-73
2022/12/24 10:17:54;;;;;;;16.60;3.10;;;12.90;99.90;;;;;;5025204;28;20481;-73
2022/12/24 10:20:35;;;;;;;12.93;3.20;;;13.00;99.90;;;;;;5025695;28;20462;-73
2022/12/24 10:23:11;;;;;;;11.97;2.90;;;13.10;99.90;;;;;;5025376;28;20460;-73
2022/12/24 10:25:45;;;;;;;13.13;3.20;;;13.30;99.90;;;;;;5024240;28;20501;-73
2022/12/24 10:28:15;;;;;;;15.30;2.97;;;13.30;99.90;;;;;;5025937;28;20472;-73
2022/12/24 10:30:43;;;;;;;9.73;2.80;;;13.30;99.90;;;;;;5022259;28;20450;-73
2022/12/24 10:33:18;;;;;;;9.20;2.80;;;13.10;99.90;;;;;;5025933;28;20504;-73
2022/12/24 10:35:50;;;;;;;9.47;3.07;;;13.10;99.90;;;;;;5025577;28;20465;-73
2022/12/24 10:38:17;;;;;;;14.13;4.00;;;12.90;99.90;;;;;;5026090;28;20449;-73
2022/12/24 10:40:46;;;;;;;14.87;3.47;;;12.80;99.90;;;;;;5025078;28;20454;-73
2022/12/24 10:43:15;;;;;;;12.07;3.17;;;12.70;99.90;;;;;;5023471;28;20549;-73
2022/12/24 10:45:46;;;;;;;15.43;3.23;;;12.70;99.90;;;;;;5024821;28;20493;-74
2022/12/24 10:48:21;;;;;;;12.53;3.13;;;12.60;99.90;;;;;;5025401;28;20456;-73
2022/12/24 10:50:54;;;;;;;10.33;2.60;;;12.60;99.90;;;;;;5026048;28;20469;-73
2022/12/24 10:53:28;;;;;;;12.47;3.33;;;12.60;99.90;;;;;;5026807;28;20481;-73
2022/12/24 10:56:04;;;;;;;18.37;2.93;;;12.50;99.90;;;;;;5026133;28;20596;-73
2022/12/24 10:58:31;;;;;;;14.50;3.70;;;12.60;99.90;;;;;;5025961;28;20493;-73
2022/12/24 11:00:58;;;;;;;13.50;3.30;;;12.70;99.90;;;;;;5024887;28;20962;-74
2022/12/24 11:03:29;;;;;;;7.40;2.73;;;12.70;99.90;;;;;;5026307;28;20545;-73
2022/12/24 11:06:04;;;;;;;12.03;3.53;;;12.80;99.90;;;;;;5025008;28;20505;-74
2022/12/24 11:08:31;;;;;;;10.00;2.83;;;12.70;99.90;;;;;;5026749;28;20458;-74
2022/12/24 11:10:59;;;;;;;9.03;2.73;;;12.60;99.90;;;;;;5027813;28;20469;-73
2022/12/24 11:13:28;;;;;;;10.50;3.70;;;12.50;99.90;;;;;;5027881;28;20453;-73
2022/12/24 11:16:07;;;;;;;11.20;3.13;;;12.50;99.90;;;;;;5027158;28;20465;-74
2022/12/24 11:18:37;;;;;;;12.40;3.07;;;12.60;99.90;;;;;;5028025;28;20938;-73
2022/12/24 11:21:06;;;;;;;12.17;3.00;;;12.50;99.90;;;;;;5028443;28;20446;-73
2022/12/24 11:23:33;;;;;;;13.73;3.20;;;12.50;99.90;;;;;;5028399;28;20458;-74
2022/12/24 11:26:00;;;;;;;25.73;3.87;;;12.50;99.90;;;;;;5027735;28;20485;-74
2022/12/24 11:28:29;;;;;;;8.40;3.83;;;12.30;99.90;;;;;;5028076;28;20466;-73
2022/12/24 11:31:00;;;;;;;21.77;3.70;;;12.30;99.90;;;;;;5028012;28;20449;-73
2022/12/24 11:33:27;;;;;;;13.50;3.20;;;12.10;99.90;;;;;;5028292;28;20458;-74
2022/12/24 11:36:01;;;;;;;17.47;4.17;;;12.10;99.90;;;;;;5027856;28;20480;-74
2022/12/24 11:38:32;;;;;;;23.03;5.30;;;12.10;99.90;;;;;;5027933;28;20920;-73
2022/12/24 11:41:02;;;;;;;20.03;4.30;;;12.20;99.90;;;;;;5028315;28;20477;-73
2022/12/24 11:43:44;;;;;;;12.93;3.73;;;12.20;99.90;;;;;;5028068;28;20453;-73
2022/12/24 11:46:19;;;;;;;12.07;4.00;;;12.20;99.90;;;;;;5027813;28;20584;-74
2022/12/24 11:48:47;;;;;;;6.60;2.80;;;12.20;99.90;;;;;;5027552;28;20480;-74
2022/12/24 11:51:22;;;;;;;20.13;4.10;;;12.10;99.90;;;;;;5028026;28;20441;-74
2022/12/24 11:53:55;;;;;;;17.13;3.43;;;12.10;99.90;;;;;;5027763;28;20880;-74
2022/12/24 11:56:31;;;;;;;15.77;3.40;;;11.90;99.90;;;;;;5027824;28;20473;-73
2022/12/24 11:59:05;;;;;;;13.53;3.90;;;11.90;99.90;;;;;;5027521;28;20453;-74
2022/12/24 12:01:36;;;;;;;13.60;3.33;;;11.90;99.90;;;;;;5027722;28;20934;-74
2022/12/24 12:04:06;;;;;;;15.00;3.47;;;11.90;99.90;;;;;;5027961;28;20446;-74
2022/12/24 12:06:38;;;;;;;16.63;4.40;;;11.90;99.90;;;;;;5027720;28;20497;-74
2022/12/24 12:09:13;;;;;;;13.13;3.93;;;12.00;99.90;;;;;;5027316;28;20453;-74
2022/12/24 12:11:41;;;;;;;12.37;2.80;;;12.20;99.90;;;;;;5027656;28;20457;-74
2022/12/24 12:14:14;;;;;;;20.27;3.00;;;12.30;99.90;;;;;;5024690;28;20437;-74
2022/12/24 12:17:03;;;;;;;11.30;3.57;;;12.30;99.90;;;;;;5022855;28;20480;-74
2022/12/24 12:19:38;;;;;;;15.40;2.93;;;12.40;99.90;;;;;;5024587;28;20446;-74
2022/12/24 12:22:07;;;;;;;10.17;3.00;;;12.50;99.90;;;;;;5024709;28;20466;-73
2022/12/24 12:24:42;;;;;;;14.17;4.47;;;12.90;99.90;;;;;;5024726;28;20453;-73
2022/12/24 12:27:19;;;;;;;17.83;3.87;;;12.90;99.90;;;;;;5024530;28;20473;-74
2022/12/24 12:29:51;;;;;;;9.57;2.97;;;12.90;99.90;;;;;;5024232;28;20544;-74
2022/12/24 12:32:26;;;;;;;16.83;3.73;;;12.90;99.90;;;;;;5024075;28;20472;-74
2022/12/24 12:35:01;;;;;;;12.67;3.80;;;12.80;99.90;;;;;;5024339;28;20475;-74
2022/12/24 12:37:33;;;;;;;13.93;3.77;;;12.70;99.90;;;;;;5024387;28;20449;-74
2022/12/24 12:40:01;;;;;;;13.77;3.10;;;12.70;99.90;;;;;;5024793;28;20476;-74
2022/12/24 12:42:31;;;;;;;13.70;3.20;;;13.00;99.90;;;;;;5024173;28;20449;-74
2022/12/24 12:45:15;;;;;;;13.90;3.13;;;13.40;99.90;;;;;;5023642;28;20465;-74
2022/12/24 12:47:55;;;;;;;15.30;3.67;;;13.80;99.90;;;;;;5024173;28;20529;-74
2022/12/24 12:50:28;;;;;;;17.07;3.33;;;14.00;99.90;;;;;;5022175;28;20449;-74
2022/12/24 12:53:11;;;;;;;12.70;4.07;;;14.10;99.90;;;;;;5024036;28;20461;-74
2022/12/24 12:55:49;;;;;;;16.97;3.60;;;14.20;99.90;;;;;;5024151;28;20718;-74
2022/12/24 12:58:22;;;;;;;11.93;3.00;;;14.20;99.90;;;;;;5023960;28;20450;-74
2022/12/24 13:00:52;;;;;;;12.33;3.33;;;14.30;99.90;;;;;;5021930;28;20460;-74
2022/12/24 13:03:47;;;;;;;22.17;3.40;;;14.30;99.90;;;;;;5023591;28;20504;-74